createdAt,value
2017-12-10T00:02:04.317Z,68.77
2017-12-10T00:04:31.750Z,68.81
2017-12-10T00:06:59.280Z,68.93
2017-12-10T00:09:26.720Z,68.45
2017-12-10T00:11:54.175Z,68.16
2017-12-10T00:14:21.623Z,68.05
2017-12-10T00:16:49.073Z,68.12
2017-12-10T00:19:16.510Z,68.14
2017-12-10T00:21:43.988Z,67.35
2017-12-10T00:24:11.440Z,68.12
2017-12-10T00:26:38.887Z,67.33
2017-12-10T00:29:06.401Z,67.34
2017-12-10T00:31:33.868Z,67.48
2017-12-10T00:34:01.411Z,66.80
2017-12-10T00:36:28.904Z,67.04
2017-12-10T00:38:56.377Z,67.18
2017-12-10T00:41:23.830Z,67.01
2017-12-10T00:43:51.339Z,66.77
2017-12-10T00:46:18.889Z,66.71
2017-12-10T00:48:46.462Z,66.76
2017-12-10T00:51:13.912Z,66.82
2017-12-10T00:53:41.362Z,66.80
2017-12-10T00:56:08.873Z,66.23
2017-12-10T00:58:36.315Z,66.83
2017-12-10T01:01:03.813Z,67.02
2017-12-10T01:03:31.395Z,66.75
2017-12-10T01:05:59.389Z,66.80
2017-12-10T01:08:26.825Z,67.23
2017-12-10T01:10:54.411Z,67.19
2017-12-10T01:13:21.888Z,67.03
2017-12-10T01:15:49.375Z,67.14
2017-12-10T01:18:17.075Z,67.34
2017-12-10T01:20:44.565Z,67.04
2017-12-10T01:23:12.045Z,67.01
2017-12-10T01:25:39.561Z,66.90
2017-12-10T01:28:07.117Z,66.57
2017-12-10T01:30:34.573Z,66.13
2017-12-10T01:33:02.069Z,66.54
2017-12-10T01:35:29.537Z,66.15
2017-12-10T01:37:57.037Z,66.36
2017-12-10T01:40:24.496Z,66.13
2017-12-10T01:42:51.937Z,66.14
2017-12-10T01:45:19.414Z,65.89
2017-12-10T01:47:46.893Z,64.80
2017-12-10T01:50:14.446Z,66.09
2017-12-10T01:52:41.902Z,64.32
2017-12-10T01:55:09.336Z,64.78
2017-12-10T01:57:36.806Z,64.54
2017-12-10T02:00:04.249Z,64.53
2017-12-10T02:02:31.781Z,64.33
2017-12-10T02:04:59.237Z,64.67
2017-12-10T02:07:26.776Z,65.10
2017-12-10T02:09:54.216Z,65.08
2017-12-10T02:12:21.683Z,65.20
2017-12-10T02:14:49.178Z,65.54
2017-12-10T02:17:16.815Z,65.38
2017-12-10T02:19:44.304Z,66.04
2017-12-10T02:22:11.848Z,65.50
2017-12-10T02:24:39.325Z,65.12
2017-12-10T02:27:06.837Z,65.27
2017-12-10T02:29:34.286Z,65.25
2017-12-10T02:32:01.761Z,65.08
2017-12-10T02:34:29.231Z,65.65
2017-12-10T02:36:56.727Z,64.77
2017-12-10T02:39:24.240Z,64.84
2017-12-10T02:41:51.704Z,65.17
2017-12-10T02:44:19.166Z,65.20
2017-12-10T02:46:46.630Z,64.85
2017-12-10T02:49:14.215Z,64.96
2017-12-10T02:51:41.676Z,65.23
2017-12-10T02:54:09.143Z,64.76
2017-12-10T02:56:36.610Z,64.95
2017-12-10T02:59:04.107Z,64.74
2017-12-10T03:01:31.609Z,64.67
2017-12-10T03:03:59.142Z,65.43
2017-12-10T03:06:26.633Z,65.41
2017-12-10T03:08:54.130Z,65.24
2017-12-10T03:11:21.564Z,64.99
2017-12-10T03:13:49.101Z,64.88
2017-12-10T03:16:16.520Z,64.64
2017-12-10T03:18:43.968Z,64.87
2017-12-10T03:21:11.433Z,64.22
2017-12-10T03:23:38.890Z,64.43
2017-12-10T03:26:06.365Z,64.15
2017-12-10T03:28:33.806Z,64.68
2017-12-10T03:31:01.310Z,64.52
2017-12-10T03:33:28.769Z,64.15
2017-12-10T03:35:56.218Z,64.88
2017-12-10T03:38:23.741Z,64.50
2017-12-10T03:40:51.176Z,64.44
2017-12-10T03:43:18.656Z,64.29
2017-12-10T03:45:46.127Z,65.39
2017-12-10T03:48:13.598Z,64.87
2017-12-10T03:50:42.666Z,67.06
2017-12-10T03:53:10.138Z,66.11
2017-12-10T03:55:37.588Z,65.61
2017-12-10T03:58:05.121Z,66.28
2017-12-10T04:00:32.589Z,66.54
2017-12-10T04:03:00.028Z,64.90
2017-12-10T04:05:27.531Z,65.62
2017-12-10T04:07:55.155Z,65.24
2017-12-10T04:10:22.602Z,65.59
2017-12-10T04:12:50.056Z,65.25
2017-12-10T04:15:17.611Z,66.29
2017-12-10T04:17:45.076Z,66.17
2017-12-10T04:20:12.517Z,65.71
2017-12-10T04:22:39.986Z,65.29
2017-12-10T04:25:07.444Z,64.94
2017-12-10T04:27:34.954Z,65.63
2017-12-10T04:30:02.451Z,65.29
2017-12-10T04:32:29.975Z,65.21
2017-12-10T04:34:57.425Z,65.52
2017-12-10T04:37:24.941Z,65.38
2017-12-10T04:39:52.434Z,65.22
2017-12-10T04:42:19.883Z,65.41
2017-12-10T04:44:47.393Z,65.19
2017-12-10T04:47:14.843Z,64.47
2017-12-10T04:49:42.300Z,64.65
2017-12-10T04:52:09.740Z,64.54
2017-12-10T04:54:37.185Z,64.62
2017-12-10T04:57:04.707Z,64.47
2017-12-10T04:59:32.142Z,64.65
2017-12-10T05:01:59.656Z,64.68
2017-12-10T05:04:27.119Z,65.07
2017-12-10T05:06:54.572Z,65.50
2017-12-10T05:09:22.029Z,65.14
2017-12-10T05:11:49.494Z,65.45
2017-12-10T05:14:16.955Z,65.31
2017-12-10T05:16:44.431Z,65.25
2017-12-10T05:19:11.933Z,64.99
2017-12-10T05:21:39.388Z,65.15
2017-12-10T05:24:06.872Z,65.25
2017-12-10T05:26:34.402Z,65.71
2017-12-10T05:29:02.022Z,65.23
2017-12-10T05:31:29.590Z,65.58
2017-12-10T05:33:57.147Z,65.42
2017-12-10T05:36:24.588Z,64.85
2017-12-10T05:38:52.045Z,64.96
2017-12-10T05:41:19.505Z,65.27
2017-12-10T05:43:46.980Z,64.91
2017-12-10T05:46:14.415Z,65.46
2017-12-10T05:48:41.875Z,65.46
2017-12-10T05:51:09.469Z,65.98
2017-12-10T05:53:36.962Z,65.79
2017-12-10T05:56:04.427Z,65.83
2017-12-10T05:58:31.948Z,65.29
2017-12-10T06:00:59.408Z,65.58
2017-12-10T06:03:26.854Z,66.05
2017-12-10T06:05:54.346Z,66.16
2017-12-10T06:08:21.840Z,66.34
2017-12-10T06:10:49.308Z,66.21
2017-12-10T06:13:16.769Z,65.88
2017-12-10T06:15:44.213Z,66.32
2017-12-10T06:18:11.672Z,65.91
2017-12-10T06:20:39.113Z,65.71
2017-12-10T06:23:06.562Z,65.89
2017-12-10T06:25:34.014Z,65.59
2017-12-10T06:28:01.584Z,65.32
2017-12-10T06:30:29.125Z,65.14
2017-12-10T06:32:56.530Z,65.28
2017-12-10T06:35:23.990Z,65.81
2017-12-10T06:37:51.466Z,66.73
2017-12-10T06:40:18.922Z,66.33
2017-12-10T06:42:46.383Z,66.98
2017-12-10T06:45:13.944Z,67.53
2017-12-10T06:47:41.393Z,67.31
2017-12-10T06:50:08.881Z,66.91
2017-12-10T06:52:36.323Z,68.13
2017-12-10T06:55:03.774Z,67.92
2017-12-10T06:57:31.236Z,68.56
2017-12-10T06:59:58.713Z,70.20
2017-12-10T07:02:26.282Z,70.69
2017-12-10T07:04:53.749Z,71.04
2017-12-10T07:07:21.250Z,72.57
2017-12-10T07:09:48.790Z,72.04
2017-12-10T07:12:16.351Z,69.67
2017-12-10T07:14:43.910Z,69.31
2017-12-10T07:17:11.412Z,71.82
2017-12-10T07:19:38.968Z,69.35
2017-12-10T07:22:06.427Z,68.33
2017-12-10T07:24:33.880Z,68.35
2017-12-10T07:27:01.441Z,67.34
2017-12-10T07:29:28.953Z,67.15
2017-12-10T07:31:56.532Z,66.67
2017-12-10T07:34:23.988Z,66.95
2017-12-10T07:36:51.437Z,66.59
2017-12-10T07:39:18.912Z,66.73
2017-12-10T07:41:46.367Z,66.39
2017-12-10T07:44:13.819Z,65.80
2017-12-10T07:46:41.340Z,65.39
2017-12-10T07:49:08.796Z,63.60
2017-12-10T07:51:36.262Z,62.91
2017-12-10T07:54:03.748Z,62.20
2017-12-10T07:56:31.189Z,62.37
2017-12-10T07:58:58.770Z,61.48
2017-12-10T08:01:26.234Z,59.75
2017-12-10T08:03:53.729Z,57.88
2017-12-10T08:06:21.175Z,56.85
2017-12-10T08:08:48.635Z,54.46
2017-12-10T08:11:16.084Z,53.58
2017-12-10T08:13:43.534Z,53.64
2017-12-10T08:16:11.071Z,52.15
2017-12-10T08:18:38.525Z,51.45
2017-12-10T08:21:06.074Z,52.25
2017-12-10T08:23:33.549Z,53.08
2017-12-10T08:26:01.019Z,54.12
2017-12-10T08:28:28.542Z,54.00
2017-12-10T08:30:56.100Z,54.55
2017-12-10T08:33:23.538Z,55.53
2017-12-10T08:35:51.053Z,55.86
2017-12-10T08:38:18.521Z,56.66
2017-12-10T08:40:46.028Z,56.32
2017-12-10T08:43:13.560Z,56.27
2017-12-10T08:45:41.051Z,55.88
2017-12-10T08:48:08.590Z,55.34
2017-12-10T08:50:36.017Z,56.01
2017-12-10T08:53:03.467Z,58.02
2017-12-10T08:55:30.906Z,58.74
2017-12-10T08:57:58.360Z,58.62
2017-12-10T09:00:25.800Z,58.64
2017-12-10T09:02:53.262Z,58.44
2017-12-10T09:05:20.788Z,56.21
2017-12-10T09:07:48.653Z,56.47
2017-12-10T09:10:16.142Z,56.00
2017-12-10T09:12:43.602Z,54.84
2017-12-10T09:15:11.068Z,55.06
2017-12-10T09:17:38.514Z,55.24
2017-12-10T09:20:05.990Z,55.07
2017-12-10T09:22:33.474Z,54.41
2017-12-10T09:25:00.976Z,54.16
2017-12-10T09:27:28.476Z,53.41
2017-12-10T09:29:55.929Z,53.82
2017-12-10T09:32:23.459Z,52.70
2017-12-10T09:34:50.944Z,52.19
2017-12-10T09:37:18.402Z,52.52
2017-12-10T09:39:45.839Z,51.73
2017-12-10T09:42:13.289Z,50.97
2017-12-10T09:44:40.748Z,51.49
2017-12-10T09:47:08.266Z,50.41
2017-12-10T09:49:35.751Z,50.63
2017-12-10T09:52:03.231Z,50.96
2017-12-10T09:54:30.697Z,49.66
2017-12-10T09:56:58.265Z,49.33
2017-12-10T09:59:25.714Z,49.54
2017-12-10T10:01:53.197Z,49.27
2017-12-10T10:04:21.137Z,50.01
2017-12-10T10:06:51.148Z,49.81
2017-12-10T10:09:18.675Z,49.99
2017-12-10T10:11:46.132Z,50.61
2017-12-10T10:14:13.604Z,49.74
2017-12-10T10:16:41.099Z,50.02
2017-12-10T10:19:08.566Z,50.55
2017-12-10T10:21:36.023Z,50.35
2017-12-10T10:24:03.502Z,51.67
2017-12-10T10:26:30.969Z,52.00
2017-12-10T10:28:58.425Z,51.44
2017-12-10T10:31:25.914Z,51.15
2017-12-10T10:33:53.386Z,51.65
2017-12-10T10:36:20.851Z,51.65
2017-12-10T10:38:48.306Z,50.93
2017-12-10T10:41:15.820Z,51.58
2017-12-10T10:43:43.263Z,51.55
2017-12-10T10:46:10.966Z,50.81
2017-12-10T10:48:38.423Z,51.61
2017-12-10T10:51:05.976Z,51.53
2017-12-10T10:53:33.424Z,51.21
2017-12-10T10:56:00.886Z,51.45
2017-12-10T10:58:28.349Z,50.50
2017-12-10T11:00:55.910Z,50.23
2017-12-10T11:03:23.447Z,50.27
2017-12-10T11:05:50.931Z,50.93
2017-12-10T11:08:18.377Z,51.83
2017-12-10T11:10:45.949Z,51.72
2017-12-10T11:13:13.413Z,52.32
2017-12-10T11:15:40.888Z,52.63
2017-12-10T11:18:09.396Z,51.93
2017-12-10T11:20:36.856Z,52.75
2017-12-10T11:23:04.311Z,52.33
2017-12-10T11:25:31.823Z,51.51
2017-12-10T11:27:59.269Z,51.38
2017-12-10T11:30:26.729Z,51.92
2017-12-10T11:32:54.216Z,52.41
2017-12-10T11:35:21.784Z,53.39
2017-12-10T11:37:49.242Z,53.97
2017-12-10T11:40:16.878Z,53.98
2017-12-10T11:42:44.357Z,54.19
2017-12-10T11:45:11.814Z,54.28
2017-12-10T11:47:39.347Z,54.67
2017-12-10T11:50:06.816Z,54.44
2017-12-10T11:52:34.285Z,54.68
2017-12-10T11:55:01.847Z,54.69
2017-12-10T11:57:29.303Z,54.22
2017-12-10T11:59:56.759Z,54.13
2017-12-10T12:02:24.235Z,54.24
2017-12-10T12:04:51.664Z,54.32
2017-12-10T12:07:19.233Z,54.35
2017-12-10T12:09:46.745Z,55.21
2017-12-10T12:12:15.727Z,55.51
2017-12-10T12:14:43.207Z,55.63
2017-12-10T12:17:10.650Z,56.15
2017-12-10T12:19:38.142Z,56.11
2017-12-10T12:22:05.631Z,56.58
2017-12-10T12:24:33.211Z,55.87
2017-12-10T12:27:00.649Z,56.58
2017-12-10T12:29:28.181Z,56.50
2017-12-10T12:31:55.617Z,56.83
2017-12-10T12:34:23.066Z,57.02
2017-12-10T12:36:50.524Z,56.77
2017-12-10T12:39:17.991Z,57.22
2017-12-10T12:41:45.465Z,57.26
2017-12-10T12:44:12.965Z,57.36
2017-12-10T12:46:40.453Z,57.57
2017-12-10T12:49:07.924Z,57.81
2017-12-10T12:51:35.404Z,58.06
2017-12-10T12:54:02.949Z,57.90
2017-12-10T12:56:30.406Z,58.12
2017-12-10T12:58:57.938Z,57.84
2017-12-10T13:01:25.354Z,58.00
2017-12-10T13:03:52.817Z,58.02
2017-12-10T13:06:20.277Z,57.92
2017-12-10T13:08:47.738Z,58.62
2017-12-10T13:11:15.248Z,58.70
2017-12-10T13:13:42.722Z,58.41
2017-12-10T13:16:10.215Z,58.47
2017-12-10T13:18:37.784Z,58.36
2017-12-10T13:21:05.279Z,58.12
2017-12-10T13:23:32.805Z,58.70
2017-12-10T13:26:00.259Z,58.03
2017-12-10T13:28:27.706Z,57.83
2017-12-10T13:30:55.163Z,58.31
2017-12-10T13:33:22.599Z,58.50
2017-12-10T13:35:50.193Z,58.48
2017-12-10T13:38:17.709Z,58.49
2017-12-10T13:40:45.206Z,58.58
2017-12-10T13:43:12.665Z,58.85
2017-12-10T13:45:40.230Z,58.83
2017-12-10T13:48:07.673Z,58.91
2017-12-10T13:50:35.120Z,58.72
2017-12-10T13:53:02.561Z,59.20
2017-12-10T13:55:30.006Z,58.85
2017-12-10T13:57:57.464Z,59.29
2017-12-10T14:00:24.908Z,58.91
2017-12-10T14:02:52.368Z,58.61
2017-12-10T14:05:19.883Z,58.46
2017-12-10T14:07:47.343Z,58.18
2017-12-10T14:10:14.809Z,58.33
2017-12-10T14:12:42.275Z,58.31
2017-12-10T14:15:09.782Z,58.42
2017-12-10T14:17:37.244Z,57.91
2017-12-10T14:20:04.860Z,57.68
2017-12-10T14:22:32.313Z,57.88
2017-12-10T14:24:59.768Z,57.69
2017-12-10T14:27:27.269Z,57.86
2017-12-10T14:29:54.742Z,57.68
2017-12-10T14:32:22.186Z,57.53
2017-12-10T14:34:49.633Z,57.15
2017-12-10T14:37:18.016Z,56.89
2017-12-10T14:39:45.504Z,56.82
2017-12-10T14:42:12.957Z,57.26
2017-12-10T14:44:40.411Z,57.21
2017-12-10T14:47:07.849Z,57.64
2017-12-10T14:49:35.289Z,56.60
2017-12-10T14:52:02.791Z,56.72
2017-12-10T14:54:30.740Z,56.66
2017-12-10T14:56:58.347Z,58.48
2017-12-10T14:59:25.845Z,59.76
2017-12-10T15:01:53.530Z,61.09
2017-12-10T15:04:20.982Z,67.77
2017-12-10T15:06:48.461Z,72.33
2017-12-10T15:09:15.928Z,72.50
2017-12-10T15:11:43.668Z,71.03
2017-12-10T15:14:11.185Z,69.33
2017-12-10T15:16:38.655Z,66.91
2017-12-10T15:19:06.120Z,66.99
2017-12-10T15:21:33.583Z,68.77
2017-12-10T15:24:01.071Z,72.46
2017-12-10T15:26:28.529Z,74.57
2017-12-10T15:28:56.006Z,75.66
2017-12-10T15:31:23.532Z,76.34
2017-12-10T15:33:51.269Z,76.23
2017-12-10T15:36:18.715Z,76.04
2017-12-10T15:38:46.180Z,73.18
2017-12-10T15:41:13.660Z,73.42
2017-12-10T15:43:45.554Z,74.74
2017-12-10T15:46:13.042Z,76.80
2017-12-10T15:48:40.574Z,78.67
2017-12-10T15:51:08.012Z,78.08
2017-12-10T15:53:35.520Z,78.53
2017-12-10T15:56:02.986Z,77.93
2017-12-10T15:58:30.452Z,77.80
2017-12-10T16:00:57.910Z,78.06
2017-12-10T16:03:25.354Z,78.09
2017-12-10T16:05:52.828Z,79.04
2017-12-10T16:08:20.304Z,79.66
2017-12-10T16:10:47.777Z,80.24
2017-12-10T16:13:15.232Z,80.56
2017-12-10T16:15:42.848Z,80.88
2017-12-10T16:18:10.327Z,81.55
2017-12-10T16:20:37.800Z,81.93
2017-12-10T16:23:05.328Z,82.01
2017-12-10T16:25:32.833Z,81.07
2017-12-10T16:28:00.302Z,81.68
2017-12-10T16:30:27.745Z,80.83
2017-12-10T16:32:55.212Z,81.11
2017-12-10T16:35:22.651Z,81.52
2017-12-10T16:37:50.217Z,80.42
2017-12-10T16:40:17.690Z,80.25
2017-12-10T16:42:45.157Z,79.46
2017-12-10T16:45:12.642Z,79.53
2017-12-10T16:47:40.137Z,79.60
2017-12-10T16:50:07.594Z,79.40
2017-12-10T16:52:35.069Z,80.23
2017-12-10T16:55:02.539Z,79.59
2017-12-10T16:57:29.976Z,79.85
2017-12-10T16:59:57.518Z,79.40
2017-12-10T17:02:24.985Z,79.12
2017-12-10T17:04:52.437Z,77.97
2017-12-10T17:07:19.920Z,77.61
2017-12-10T17:09:47.416Z,77.06
2017-12-10T17:12:15.022Z,76.76
2017-12-10T17:14:42.534Z,76.14
2017-12-10T17:17:09.998Z,76.16
2017-12-10T17:19:37.489Z,75.47
2017-12-10T17:22:04.949Z,75.22
2017-12-10T17:24:32.432Z,75.83
2017-12-10T17:26:59.982Z,75.68
2017-12-10T17:29:27.428Z,75.47
2017-12-10T17:31:54.886Z,75.54
2017-12-10T17:34:22.336Z,75.41
2017-12-10T17:36:49.809Z,75.13
2017-12-10T17:39:17.269Z,74.30
2017-12-10T17:41:44.756Z,73.82
2017-12-10T17:44:12.218Z,72.86
2017-12-10T17:46:39.715Z,72.91
2017-12-10T17:49:07.167Z,73.04
2017-12-10T17:51:34.619Z,72.57
2017-12-10T17:54:02.085Z,71.90
2017-12-10T17:56:29.536Z,71.71
2017-12-10T17:58:57.109Z,71.77
2017-12-10T18:01:27.280Z,71.52
2017-12-10T18:03:54.748Z,71.08
2017-12-10T18:06:22.274Z,70.36
2017-12-10T18:08:49.832Z,70.32
2017-12-10T18:11:17.303Z,69.01
2017-12-10T18:13:44.789Z,69.39
2017-12-10T18:16:12.645Z,68.80
2017-12-10T18:18:40.116Z,68.41
2017-12-10T18:21:07.613Z,68.96
2017-12-10T18:23:35.060Z,68.83
2017-12-10T18:26:02.519Z,68.74
2017-12-10T18:28:29.970Z,68.91
2017-12-10T18:30:57.436Z,69.30
2017-12-10T18:33:24.889Z,68.62
2017-12-10T18:35:52.412Z,68.54
2017-12-10T18:38:19.863Z,68.65
2017-12-10T18:40:47.389Z,68.44
2017-12-10T18:43:14.849Z,68.57
2017-12-10T18:45:42.399Z,69.37
2017-12-10T18:48:09.918Z,68.88
2017-12-10T18:50:37.359Z,69.28
2017-12-10T18:53:04.895Z,69.58
2017-12-10T18:55:32.349Z,69.82
2017-12-10T18:57:59.859Z,70.26
2017-12-10T19:00:27.310Z,70.62
2017-12-10T19:02:54.786Z,70.93
2017-12-10T19:05:22.240Z,70.96
2017-12-10T19:07:49.741Z,70.90
2017-12-10T19:10:17.255Z,70.92
2017-12-10T19:12:44.710Z,70.49
2017-12-10T19:15:12.177Z,70.33
2017-12-10T19:17:39.643Z,69.99
2017-12-10T19:20:07.092Z,69.92
2017-12-10T19:22:34.533Z,69.58
2017-12-10T19:25:02.007Z,70.16
2017-12-10T19:27:29.446Z,69.95
2017-12-10T19:29:56.895Z,69.95
2017-12-10T19:32:24.357Z,69.86
2017-12-10T19:34:51.894Z,69.84
2017-12-10T19:37:19.356Z,70.39
2017-12-10T19:39:46.836Z,70.75
2017-12-10T19:42:14.326Z,70.74
2017-12-10T19:44:41.794Z,70.58
2017-12-10T19:47:09.300Z,70.41
2017-12-10T19:49:36.810Z,70.79
2017-12-10T19:52:04.262Z,71.02
2017-12-10T19:54:31.742Z,70.78
2017-12-10T19:56:59.231Z,71.54
2017-12-10T19:59:26.686Z,71.58
2017-12-10T20:01:54.227Z,71.58
2017-12-10T20:04:21.672Z,71.18
2017-12-10T20:06:49.175Z,70.97
2017-12-10T20:09:16.658Z,70.73
2017-12-10T20:11:44.552Z,70.80
2017-12-10T20:14:12.086Z,70.16
2017-12-10T20:16:39.551Z,70.35
2017-12-10T20:19:07.003Z,69.95
2017-12-10T20:21:35.325Z,70.09
2017-12-10T20:24:02.785Z,69.71
2017-12-10T20:26:30.256Z,69.21
2017-12-10T20:28:57.701Z,68.63
2017-12-10T20:31:25.196Z,68.65
2017-12-10T20:33:52.815Z,68.63
2017-12-10T20:36:22.709Z,68.11
2017-12-10T20:38:50.930Z,67.98
2017-12-10T20:41:18.485Z,67.72
2017-12-10T20:43:46.044Z,67.75
2017-12-10T20:46:13.552Z,67.33
2017-12-10T20:48:41.113Z,67.79
2017-12-10T20:51:08.607Z,67.55
2017-12-10T20:53:36.048Z,67.52
2017-12-10T20:56:03.589Z,67.77
2017-12-10T20:58:31.027Z,67.36
2017-12-10T21:00:58.480Z,67.67
2017-12-10T21:03:25.926Z,67.96
2017-12-10T21:05:53.375Z,68.14
2017-12-10T21:08:20.853Z,68.49
2017-12-10T21:10:48.357Z,68.51
2017-12-10T21:13:16.083Z,68.61
2017-12-10T21:15:43.533Z,68.28
2017-12-10T21:18:10.988Z,68.64
2017-12-10T21:20:38.522Z,68.30
2017-12-10T21:23:05.988Z,67.79
2017-12-10T21:25:33.437Z,67.52
2017-12-10T21:28:00.893Z,67.40
2017-12-10T21:30:28.413Z,67.24
2017-12-10T21:32:55.980Z,66.93
2017-12-10T21:35:23.462Z,66.79
2017-12-10T21:37:50.911Z,66.60
2017-12-10T21:40:18.378Z,66.52
2017-12-10T21:42:45.898Z,66.62
2017-12-10T21:45:13.413Z,66.55
2017-12-10T21:47:40.910Z,66.17
2017-12-10T21:50:11.173Z,66.33
2017-12-10T21:52:38.760Z,66.19
2017-12-10T21:55:06.216Z,65.85
2017-12-10T21:57:33.873Z,65.94
2017-12-10T22:00:01.415Z,65.90
2017-12-10T22:02:28.865Z,66.13
2017-12-10T22:04:56.323Z,66.15
2017-12-10T22:07:23.836Z,66.10
2017-12-10T22:09:51.320Z,66.31
2017-12-10T22:12:18.763Z,66.66
2017-12-10T22:14:46.237Z,66.69
2017-12-10T22:17:13.754Z,66.88
2017-12-10T22:19:41.203Z,66.53
2017-12-10T22:22:08.755Z,66.35
2017-12-10T22:24:36.230Z,66.58
2017-12-10T22:27:03.703Z,66.48
2017-12-10T22:29:31.147Z,66.48
2017-12-10T22:31:58.606Z,66.23
2017-12-10T22:34:26.080Z,66.34
2017-12-10T22:36:53.647Z,66.10
2017-12-10T22:39:21.158Z,66.25
2017-12-10T22:41:48.820Z,66.29
2017-12-10T22:44:16.290Z,65.75
2017-12-10T22:46:43.800Z,65.74
2017-12-10T22:49:11.287Z,65.42
2017-12-10T22:51:38.796Z,65.39
2017-12-10T22:54:06.272Z,65.03
2017-12-10T22:56:33.723Z,65.25
2017-12-10T22:59:01.183Z,64.92
2017-12-10T23:01:28.684Z,64.84
2017-12-10T23:03:56.248Z,64.67
2017-12-10T23:06:23.706Z,64.32
2017-12-10T23:08:51.153Z,64.89
2017-12-10T23:11:18.678Z,64.71
2017-12-10T23:13:57.768Z,64.37
2017-12-10T23:16:27.004Z,64.25
2017-12-10T23:18:54.446Z,64.30
2017-12-10T23:21:21.896Z,64.33
2017-12-10T23:23:49.341Z,64.02
2017-12-10T23:26:16.875Z,64.08
2017-12-10T23:28:44.318Z,63.87
2017-12-10T23:31:11.837Z,63.36
2017-12-10T23:33:39.308Z,63.49
2017-12-10T23:36:06.796Z,63.88
2017-12-10T23:38:34.353Z,63.80
2017-12-10T23:41:01.822Z,63.99
2017-12-10T23:43:29.308Z,64.87
2017-12-10T23:45:56.769Z,66.60
2017-12-10T23:48:24.226Z,67.81
2017-12-10T23:50:51.699Z,68.48
2017-12-10T23:53:19.144Z,69.08
2017-12-10T23:55:46.661Z,69.78
2017-12-10T23:58:14.138Z,69.83
